CheckWX is a tool to help pilots better visualize weather data.  It is not intended as a substitute for an official pre-flight weather briefing.

20:59:25 UTC

4S1 METAR
Gold Beach Municipal Airport
Gold Beach, Oregon, USA
Current

24 mins ago

K4S1 232035Z AUTO 35008KT 7SM CLR 15/12 A3019 RMK AO1
Observed
Apr-23 @ 20:35 UTC
Wind
  • 350° at 8 KTS
Visibility
7 SM
Flight Rules
VFR
Cloud Levels
  • Clear skies
Temperature
15°C / 59°F
Dewpoint
12°C / 54°F
Humidity
82%
Altimeter
30.19" Hg
Pressure
1022.32 hPa
Previous

44 mins ago

K4S1 232015Z AUTO 36006KT 7SM CLR 15/11 A3019 RMK AO1
Observed
Apr-23 @ 20:15 UTC
Wind
  • 360° at 6 KTS
Visibility
7 SM
Flight Rules
VFR
Cloud Levels
  • Clear skies
Temperature
15°C / 59°F
Dewpoint
11°C / 52°F
Humidity
77%
Altimeter
30.19" Hg
Pressure
1022.32 hPa
Previous

1 hour ago

K4S1 231955Z AUTO 35009G15KT 5SM HZ CLR 14/11 A3019 RMK AO1
Observed
Apr-23 @ 19:55 UTC
Wind
  • 350° at 9 KTS
  • Gusting to 15 KTS
Visibility
5 SM
Flight Rules
MVFR
Conditions
Haze
Cloud Levels
  • Clear skies
Temperature
14°C / 57°F
Dewpoint
11°C / 52°F
Humidity
82%
Altimeter
30.19" Hg
Pressure
1022.32 hPa